sensor_id;sensor_type;location;lat;lon;timestamp;temperature;humidity
43697;DHT22;29301;47.620;19.560;2023-02-15T00:01:39;0.10;86.30
43697;DHT22;29301;47.620;19.560;2023-02-15T00:04:06;0.00;85.70
43697;DHT22;29301;47.620;19.560;2023-02-15T00:06:33;-0.20;86.70
43697;DHT22;29301;47.620;19.560;2023-02-15T00:08:59;-0.10;87.30
43697;DHT22;29301;47.620;19.560;2023-02-15T00:11:25;-0.30;87.40
43697;DHT22;29301;47.620;19.560;2023-02-15T00:14:16;-0.20;88.30
43697;DHT22;29301;47.620;19.560;2023-02-15T00:16:43;-0.10;88.40
43697;DHT22;29301;47.620;19.560;2023-02-15T00:19:10;0.00;88.60
43697;DHT22;29301;47.620;19.560;2023-02-15T00:21:36;0.10;88.70
43697;DHT22;29301;47.620;19.560;2023-02-15T00:24:04;0.20;88.40
43697;DHT22;29301;47.620;19.560;2023-02-15T00:26:31;0.20;87.40
43697;DHT22;29301;47.620;19.560;2023-02-15T00:28:56;0.20;87.10
43697;DHT22;29301;47.620;19.560;2023-02-15T00:31:24;0.10;87.50
43697;DHT22;29301;47.620;19.560;2023-02-15T00:33:50;0.00;88.00
43697;DHT22;29301;47.620;19.560;2023-02-15T00:36:16;-0.10;88.60
43697;DHT22;29301;47.620;19.560;2023-02-15T00:38:42;-0.20;89.30
43697;DHT22;29301;47.620;19.560;2023-02-15T00:41:09;-0.30;90.20
43697;DHT22;29301;47.620;19.560;2023-02-15T00:43:35;-0.10;90.60
43697;DHT22;29301;47.620;19.560;2023-02-15T00:46:02;0.00;90.60
43697;DHT22;29301;47.620;19.560;2023-02-15T00:48:28;0.10;90.40
43697;DHT22;29301;47.620;19.560;2023-02-15T00:50:57;0.10;89.30
43697;DHT22;29301;47.620;19.560;2023-02-15T00:53:24;-0.10;88.70
43697;DHT22;29301;47.620;19.560;2023-02-15T00:55:50;-0.10;89.30
43697;DHT22;29301;47.620;19.560;2023-02-15T00:58:16;0.00;89.70
43697;DHT22;29301;47.620;19.560;2023-02-15T01:00:44;0.00;89.40
43697;DHT22;29301;47.620;19.560;2023-02-15T01:03:11;0.00;89.30
43697;DHT22;29301;47.620;19.560;2023-02-15T01:05:37;0.00;89.30
43697;DHT22;29301;47.620;19.560;2023-02-15T01:08:03;-0.10;89.40
43697;DHT22;29301;47.620;19.560;2023-02-15T01:10:29;-0.10;89.90
43697;DHT22;29301;47.620;19.560;2023-02-15T01:12:55;-0.20;89.60
43697;DHT22;29301;47.620;19.560;2023-02-15T01:15:21;-0.50;88.00
43697;DHT22;29301;47.620;19.560;2023-02-15T01:17:47;-0.70;88.40
43697;DHT22;29301;47.620;19.560;2023-02-15T01:22:44;-0.50;90.40
43697;DHT22;29301;47.620;19.560;2023-02-15T01:25:10;-0.40;90.60
43697;DHT22;29301;47.620;19.560;2023-02-15T01:27:35;-0.40;90.60
43697;DHT22;29301;47.620;19.560;2023-02-15T01:30:01;-0.30;90.50
43697;DHT22;29301;47.620;19.560;2023-02-15T01:32:30;-0.30;90.00
43697;DHT22;29301;47.620;19.560;2023-02-15T01:34:55;-0.50;90.00
43697;DHT22;29301;47.620;19.560;2023-02-15T01:37:21;-0.50;90.40
43697;DHT22;29301;47.620;19.560;2023-02-15T01:39:47;-0.50;90.70
43697;DHT22;29301;47.620;19.560;2023-02-15T01:42:21;-0.40;90.90
43697;DHT22;29301;47.620;19.560;2023-02-15T01:44:55;-0.30;90.90
43697;DHT22;29301;47.620;19.560;2023-02-15T01:49:48;-0.20;90.90
43697;DHT22;29301;47.620;19.560;2023-02-15T01:52:17;-0.20;90.80
43697;DHT22;29301;47.620;19.560;2023-02-15T01:54:44;-0.30;90.70
43697;DHT22;29301;47.620;19.560;2023-02-15T01:57:13;-0.30;90.80
43697;DHT22;29301;47.620;19.560;2023-02-15T01:59:43;-0.40;90.90
43697;DHT22;29301;47.620;19.560;2023-02-15T02:02:13;-0.30;90.90
43697;DHT22;29301;47.620;19.560;2023-02-15T02:04:50;-0.40;90.90
43697;DHT22;29301;47.620;19.560;2023-02-15T02:07:22;-0.40;91.10
43697;DHT22;29301;47.620;19.560;2023-02-15T02:09:50;-0.40;91.20
43697;DHT22;29301;47.620;19.560;2023-02-15T02:12:17;-0.40;91.30
43697;DHT22;29301;47.620;19.560;2023-02-15T02:14:44;-0.40;91.30
43697;DHT22;29301;47.620;19.560;2023-02-15T02:29:07;-1.00;89.40
43697;DHT22;29301;47.620;19.560;2023-02-15T02:34:33;-0.90;90.10
43697;DHT22;29301;47.620;19.560;2023-02-15T02:40:13;-0.70;90.70
43697;DHT22;29301;47.620;19.560;2023-02-15T02:45:39;-0.50;90.90
43697;DHT22;29301;47.620;19.560;2023-02-15T02:48:11;-0.50;90.90
43697;DHT22;29301;47.620;19.560;2023-02-15T02:50:39;-0.50;90.50
43697;DHT22;29301;47.620;19.560;2023-02-15T02:53:05;-0.50;90.30
43697;DHT22;29301;47.620;19.560;2023-02-15T03:00:39;-0.60;90.40
43697;DHT22;29301;47.620;19.560;2023-02-15T03:03:44;-0.60;90.40
43697;DHT22;29301;47.620;19.560;2023-02-15T03:06:36;-0.60;90.50
43697;DHT22;29301;47.620;19.560;2023-02-15T03:09:12;-0.60;90.60
43697;DHT22;29301;47.620;19.560;2023-02-15T03:11:44;-0.60;90.50
43697;DHT22;29301;47.620;19.560;2023-02-15T03:14:10;-0.70;90.40
43697;DHT22;29301;47.620;19.560;2023-02-15T03:16:39;-0.70;90.40
43697;DHT22;29301;47.620;19.560;2023-02-15T03:19:12;-0.70;90.30
43697;DHT22;29301;47.620;19.560;2023-02-15T03:21:49;-0.80;90.20
43697;DHT22;29301;47.620;19.560;2023-02-15T03:24:27;-0.80;90.10
43697;DHT22;29301;47.620;19.560;2023-02-15T03:26:54;-0.90;90.10
43697;DHT22;29301;47.620;19.560;2023-02-15T03:29:24;-0.90;90.00
43697;DHT22;29301;47.620;19.560;2023-02-15T03:31:55;-0.90;90.00
43697;DHT22;29301;47.620;19.560;2023-02-15T03:34:22;-1.00;90.10
43697;DHT22;29301;47.620;19.560;2023-02-15T03:40:06;-1.00;90.40
43697;DHT22;29301;47.620;19.560;2023-02-15T03:45:38;-1.00;90.70
43697;DHT22;29301;47.620;19.560;2023-02-15T03:50:55;-1.00;91.00
43697;DHT22;29301;47.620;19.560;2023-02-15T03:53:42;-1.00;91.10
43697;DHT22;29301;47.620;19.560;2023-02-15T03:56:08;-1.00;91.20
43697;DHT22;29301;47.620;19.560;2023-02-15T03:58:34;-0.90;91.20
43697;DHT22;29301;47.620;19.560;2023-02-15T04:04:15;-0.90;90.90
43697;DHT22;29301;47.620;19.560;2023-02-15T04:06:43;-0.90;90.70
43697;DHT22;29301;47.620;19.560;2023-02-15T04:09:08;-0.90;90.50
43697;DHT22;29301;47.620;19.560;2023-02-15T04:11:53;-0.90;90.20
43697;DHT22;29301;47.620;19.560;2023-02-15T04:14:18;-0.90;89.80
43697;DHT22;29301;47.620;19.560;2023-02-15T04:17:08;-1.00;89.00
43697;DHT22;29301;47.620;19.560;2023-02-15T04:19:34;-1.00;89.10
43697;DHT22;29301;47.620;19.560;2023-02-15T04:22:18;-1.00;88.80
43697;DHT22;29301;47.620;19.560;2023-02-15T04:25:03;-0.90;88.20
43697;DHT22;29301;47.620;19.560;2023-02-15T04:27:43;-0.80;87.60
43697;DHT22;29301;47.620;19.560;2023-02-15T04:30:10;-0.80;86.60
43697;DHT22;29301;47.620;19.560;2023-02-15T04:32:37;-0.90;85.40
43697;DHT22;29301;47.620;19.560;2023-02-15T04:35:04;-1.10;84.60
43697;DHT22;29301;47.620;19.560;2023-02-15T04:37:31;-1.00;84.50
43697;DHT22;29301;47.620;19.560;2023-02-15T04:39:57;-1.10;83.70
43697;DHT22;29301;47.620;19.560;2023-02-15T04:42:24;-1.20;83.20
43697;DHT22;29301;47.620;19.560;2023-02-15T04:44:51;-1.30;83.00
43697;DHT22;29301;47.620;19.560;2023-02-15T04:47:17;-1.50;83.00
43697;DHT22;29301;47.620;19.560;2023-02-15T04:49:42;-1.50;83.70
43697;DHT22;29301;47.620;19.560;2023-02-15T04:52:08;-1.40;83.90
43697;DHT22;29301;47.620;19.560;2023-02-15T04:54:34;-1.50;83.60
43697;DHT22;29301;47.620;19.560;2023-02-15T04:57:01;-1.50;83.40
43697;DHT22;29301;47.620;19.560;2023-02-15T04:59:27;-1.50;83.30
43697;DHT22;29301;47.620;19.560;2023-02-15T05:01:53;-1.50;83.30
43697;DHT22;29301;47.620;19.560;2023-02-15T05:04:18;-1.60;83.30
43697;DHT22;29301;47.620;19.560;2023-02-15T05:06:44;-1.60;83.40
43697;DHT22;29301;47.620;19.560;2023-02-15T05:09:13;-1.60;83.50
43697;DHT22;29301;47.620;19.560;2023-02-15T05:11:39;-1.60;83.90
43697;DHT22;29301;47.620;19.560;2023-02-15T05:14:04;-1.60;84.70
43697;DHT22;29301;47.620;19.560;2023-02-15T05:16:31;-1.70;85.50
43697;DHT22;29301;47.620;19.560;2023-02-15T05:18:57;-1.70;86.30
43697;DHT22;29301;47.620;19.560;2023-02-15T05:21:22;-1.70;86.90
43697;DHT22;29301;47.620;19.560;2023-02-15T05:23:48;-1.70;87.70
43697;DHT22;29301;47.620;19.560;2023-02-15T05:26:18;-1.70;88.10
43697;DHT22;29301;47.620;19.560;2023-02-15T05:29:03;-1.70;88.30
43697;DHT22;29301;47.620;19.560;2023-02-15T05:31:30;-1.70;88.50
43697;DHT22;29301;47.620;19.560;2023-02-15T05:33:56;-1.60;88.50
43697;DHT22;29301;47.620;19.560;2023-02-15T05:36:21;-1.60;88.40
43697;DHT22;29301;47.620;19.560;2023-02-15T05:38:47;-1.60;88.20
43697;DHT22;29301;47.620;19.560;2023-02-15T05:41:13;-1.50;88.10
43697;DHT22;29301;47.620;19.560;2023-02-15T05:43:39;-1.50;87.80
43697;DHT22;29301;47.620;19.560;2023-02-15T05:46:06;-1.50;87.40
43697;DHT22;29301;47.620;19.560;2023-02-15T05:48:32;-1.50;87.00
43697;DHT22;29301;47.620;19.560;2023-02-15T05:50:59;-1.40;86.70
43697;DHT22;29301;47.620;19.560;2023-02-15T05:53:26;-1.50;86.40
43697;DHT22;29301;47.620;19.560;2023-02-15T05:55:52;-1.40;86.30
43697;DHT22;29301;47.620;19.560;2023-02-15T05:58:19;-1.50;85.70
43697;DHT22;29301;47.620;19.560;2023-02-15T06:00:45;-1.60;85.60
43697;DHT22;29301;47.620;19.560;2023-02-15T06:03:11;-1.50;85.80
43697;DHT22;29301;47.620;19.560;2023-02-15T06:05:36;-1.50;85.70
43697;DHT22;29301;47.620;19.560;2023-02-15T06:08:02;-1.40;85.60
43697;DHT22;29301;47.620;19.560;2023-02-15T06:10:28;-1.50;85.20
43697;DHT22;29301;47.620;19.560;2023-02-15T06:12:53;-1.60;84.30
43697;DHT22;29301;47.620;19.560;2023-02-15T06:15:19;-1.60;84.50
43697;DHT22;29301;47.620;19.560;2023-02-15T06:17:45;-1.60;84.50
43697;DHT22;29301;47.620;19.560;2023-02-15T06:20:11;-1.60;84.50
43697;DHT22;29301;47.620;19.560;2023-02-15T06:22:36;-1.50;84.40
43697;DHT22;29301;47.620;19.560;2023-02-15T06:25:02;-1.50;84.00
43697;DHT22;29301;47.620;19.560;2023-02-15T06:27:29;-1.40;84.10
43697;DHT22;29301;47.620;19.560;2023-02-15T06:29:54;-1.40;84.30
43697;DHT22;29301;47.620;19.560;2023-02-15T06:32:20;-1.40;84.50
43697;DHT22;29301;47.620;19.560;2023-02-15T06:34:45;-1.40;84.60
43697;DHT22;29301;47.620;19.560;2023-02-15T06:37:11;-1.40;84.70
43697;DHT22;29301;47.620;19.560;2023-02-15T06:39:37;-1.40;84.60
43697;DHT22;29301;47.620;19.560;2023-02-15T06:42:03;-1.40;84.80
43697;DHT22;29301;47.620;19.560;2023-02-15T06:44:28;-1.50;85.10
43697;DHT22;29301;47.620;19.560;2023-02-15T06:46:54;-1.50;85.60
43697;DHT22;29301;47.620;19.560;2023-02-15T06:49:19;-1.50;86.20
43697;DHT22;29301;47.620;19.560;2023-02-15T06:51:45;-1.50;86.90
43697;DHT22;29301;47.620;19.560;2023-02-15T06:54:12;-1.50;87.50
43697;DHT22;29301;47.620;19.560;2023-02-15T06:56:37;-1.50;87.90
43697;DHT22;29301;47.620;19.560;2023-02-15T06:59:04;-1.40;88.30
43697;DHT22;29301;47.620;19.560;2023-02-15T07:01:29;-1.40;88.70
43697;DHT22;29301;47.620;19.560;2023-02-15T07:03:55;-1.40;89.10
43697;DHT22;29301;47.620;19.560;2023-02-15T07:06:21;-1.40;89.30
43697;DHT22;29301;47.620;19.560;2023-02-15T07:08:46;-1.30;89.80
43697;DHT22;29301;47.620;19.560;2023-02-15T07:11:12;-1.30;90.00
43697;DHT22;29301;47.620;19.560;2023-02-15T07:13:56;-1.20;90.20
43697;DHT22;29301;47.620;19.560;2023-02-15T07:16:22;-1.10;90.30
43697;DHT22;29301;47.620;19.560;2023-02-15T07:18:48;-0.90;90.40
43697;DHT22;29301;47.620;19.560;2023-02-15T07:21:13;-0.70;90.40
43697;DHT22;29301;47.620;19.560;2023-02-15T07:23:40;-0.60;90.20
43697;DHT22;29301;47.620;19.560;2023-02-15T07:26:06;-0.50;90.20
43697;DHT22;29301;47.620;19.560;2023-02-15T07:28:33;-0.20;90.10
43697;DHT22;29301;47.620;19.560;2023-02-15T07:31:04;0.00;90.00
43697;DHT22;29301;47.620;19.560;2023-02-15T07:33:31;0.20;89.50
43697;DHT22;29301;47.620;19.560;2023-02-15T07:35:59;0.40;89.00
43697;DHT22;29301;47.620;19.560;2023-02-15T07:38:29;0.60;88.10
43697;DHT22;29301;47.620;19.560;2023-02-15T07:41:02;0.80;87.00
43697;DHT22;29301;47.620;19.560;2023-02-15T07:43:29;0.90;85.80
43697;DHT22;29301;47.620;19.560;2023-02-15T07:45:59;1.10;85.40
43697;DHT22;29301;47.620;19.560;2023-02-15T07:48:25;1.30;84.90
43697;DHT22;29301;47.620;19.560;2023-02-15T07:50:51;1.50;84.10
43697;DHT22;29301;47.620;19.560;2023-02-15T07:53:17;1.70;83.10
43697;DHT22;29301;47.620;19.560;2023-02-15T07:55:43;1.90;82.20
43697;DHT22;29301;47.620;19.560;2023-02-15T07:58:09;2.10;81.50
43697;DHT22;29301;47.620;19.560;2023-02-15T08:00:34;2.20;80.80
43697;DHT22;29301;47.620;19.560;2023-02-15T08:03:23;2.40;79.70
43697;DHT22;29301;47.620;19.560;2023-02-15T08:05:55;2.50;79.30
43697;DHT22;29301;47.620;19.560;2023-02-15T08:08:21;2.70;79.20
43697;DHT22;29301;47.620;19.560;2023-02-15T08:11:02;2.90;79.00
43697;DHT22;29301;47.620;19.560;2023-02-15T08:13:48;3.10;77.80
43697;DHT22;29301;47.620;19.560;2023-02-15T08:16:41;3.40;76.70
43697;DHT22;29301;47.620;19.560;2023-02-15T08:21:47;3.70;74.70
43697;DHT22;29301;47.620;19.560;2023-02-15T08:24:14;3.80;73.50
43697;DHT22;29301;47.620;19.560;2023-02-15T08:26:40;3.80;73.10
43697;DHT22;29301;47.620;19.560;2023-02-15T08:29:08;3.90;73.40
43697;DHT22;29301;47.620;19.560;2023-02-15T08:31:34;4.10;73.30
43697;DHT22;29301;47.620;19.560;2023-02-15T08:34:00;4.30;72.50
43697;DHT22;29301;47.620;19.560;2023-02-15T08:36:29;4.40;72.20
43697;DHT22;29301;47.620;19.560;2023-02-15T08:38:57;4.50;72.00
43697;DHT22;29301;47.620;19.560;2023-02-15T08:41:26;4.60;71.40
43697;DHT22;29301;47.620;19.560;2023-02-15T08:43:57;4.70;71.70
43697;DHT22;29301;47.620;19.560;2023-02-15T08:46:25;4.80;71.60
43697;DHT22;29301;47.620;19.560;2023-02-15T08:48:51;4.90;71.10
43697;DHT22;29301;47.620;19.560;2023-02-15T08:51:19;5.00;71.00
43697;DHT22;29301;47.620;19.560;2023-02-15T08:53:47;5.10;71.80
43697;DHT22;29301;47.620;19.560;2023-02-15T08:56:18;5.40;71.10
43697;DHT22;29301;47.620;19.560;2023-02-15T08:58:44;5.60;70.00
43697;DHT22;29301;47.620;19.560;2023-02-15T09:01:11;5.70;69.90
43697;DHT22;29301;47.620;19.560;2023-02-15T09:03:37;5.90;69.30
43697;DHT22;29301;47.620;19.560;2023-02-15T09:06:04;6.00;68.30
43697;DHT22;29301;47.620;19.560;2023-02-15T09:08:29;6.10;67.80
43697;DHT22;29301;47.620;19.560;2023-02-15T09:11:26;6.20;67.90
43697;DHT22;29301;47.620;19.560;2023-02-15T09:13:53;6.40;67.80
43697;DHT22;29301;47.620;19.560;2023-02-15T09:16:21;6.60;67.60
43697;DHT22;29301;47.620;19.560;2023-02-15T09:18:47;6.80;66.50
43697;DHT22;29301;47.620;19.560;2023-02-15T09:21:16;6.80;66.10
43697;DHT22;29301;47.620;19.560;2023-02-15T09:23:43;6.70;67.60
43697;DHT22;29301;47.620;19.560;2023-02-15T09:26:15;6.60;68.60
43697;DHT22;29301;47.620;19.560;2023-02-15T09:28:41;6.50;69.40
43697;DHT22;29301;47.620;19.560;2023-02-15T09:31:18;6.40;70.00
43697;DHT22;29301;47.620;19.560;2023-02-15T09:33:45;6.30;69.80
43697;DHT22;29301;47.620;19.560;2023-02-15T09:36:26;6.30;70.30
43697;DHT22;29301;47.620;19.560;2023-02-15T09:39:09;6.20;70.20
43697;DHT22;29301;47.620;19.560;2023-02-15T09:42:02;6.30;70.90
43697;DHT22;29301;47.620;19.560;2023-02-15T09:44:50;6.40;70.20
43697;DHT22;29301;47.620;19.560;2023-02-15T09:50:49;6.30;69.90
43697;DHT22;29301;47.620;19.560;2023-02-15T10:07:15;6.70;67.20
43697;DHT22;29301;47.620;19.560;2023-02-15T10:22:41;7.40;65.80
43697;DHT22;29301;47.620;19.560;2023-02-15T10:25:32;7.40;66.00
43697;DHT22;29301;47.620;19.560;2023-02-15T10:28:19;7.40;64.80
43697;DHT22;29301;47.620;19.560;2023-02-15T10:30:48;7.40;64.40
43697;DHT22;29301;47.620;19.560;2023-02-15T10:33:41;7.40;63.70
43697;DHT22;29301;47.620;19.560;2023-02-15T10:41:51;7.80;63.10
43697;DHT22;29301;47.620;19.560;2023-02-15T10:50:59;7.70;62.30
43697;DHT22;29301;47.620;19.560;2023-02-15T10:53:32;7.60;62.40
43697;DHT22;29301;47.620;19.560;2023-02-15T10:56:15;7.80;63.90
43697;DHT22;29301;47.620;19.560;2023-02-15T11:07:11;7.80;61.10
43697;DHT22;29301;47.620;19.560;2023-02-15T11:09:44;7.90;62.40
43697;DHT22;29301;47.620;19.560;2023-02-15T11:12:14;8.00;61.00
43697;DHT22;29301;47.620;19.560;2023-02-15T11:14:58;8.00;60.90
43697;DHT22;29301;47.620;19.560;2023-02-15T11:17:33;7.90;60.90
43697;DHT22;29301;47.620;19.560;2023-02-15T11:22:33;8.00;61.10
43697;DHT22;29301;47.620;19.560;2023-02-15T11:25:01;8.20;61.30
43697;DHT22;29301;47.620;19.560;2023-02-15T11:27:31;8.20;60.40
43697;DHT22;29301;47.620;19.560;2023-02-15T11:41:55;8.10;60.40
43697;DHT22;29301;47.620;19.560;2023-02-15T11:44:34;8.30;60.10
43697;DHT22;29301;47.620;19.560;2023-02-15T11:47:01;8.30;60.60
43697;DHT22;29301;47.620;19.560;2023-02-15T11:49:32;8.40;61.10
43697;DHT22;29301;47.620;19.560;2023-02-15T11:52:02;8.40;60.00
43697;DHT22;29301;47.620;19.560;2023-02-15T11:54:30;8.30;60.20
43697;DHT22;29301;47.620;19.560;2023-02-15T11:57:02;8.30;60.70
43697;DHT22;29301;47.620;19.560;2023-02-15T11:59:34;8.40;61.60
43697;DHT22;29301;47.620;19.560;2023-02-15T12:02:02;8.60;60.90
43697;DHT22;29301;47.620;19.560;2023-02-15T12:07:12;8.70;59.30
43697;DHT22;29301;47.620;19.560;2023-02-15T12:12:35;8.50;59.80
43697;DHT22;29301;47.620;19.560;2023-02-15T12:15:06;8.40;58.80
43697;DHT22;29301;47.620;19.560;2023-02-15T12:17:35;8.50;60.00
43697;DHT22;29301;47.620;19.560;2023-02-15T12:22:35;8.60;58.00
43697;DHT22;29301;47.620;19.560;2023-02-15T12:25:21;8.60;58.80
43697;DHT22;29301;47.620;19.560;2023-02-15T12:27:48;8.70;59.40
43697;DHT22;29301;47.620;19.560;2023-02-15T12:30:36;8.80;58.10
43697;DHT22;29301;47.620;19.560;2023-02-15T12:33:29;8.80;57.70
43697;DHT22;29301;47.620;19.560;2023-02-15T12:36:08;8.80;57.50
43697;DHT22;29301;47.620;19.560;2023-02-15T12:38:36;8.70;57.60
43697;DHT22;29301;47.620;19.560;2023-02-15T12:41:24;8.80;57.40
43697;DHT22;29301;47.620;19.560;2023-02-15T12:44:16;8.80;56.80
43697;DHT22;29301;47.620;19.560;2023-02-15T12:46:56;8.90;57.10
43697;DHT22;29301;47.620;19.560;2023-02-15T12:49:24;9.00;57.00
43697;DHT22;29301;47.620;19.560;2023-02-15T12:51:52;8.90;55.90
43697;DHT22;29301;47.620;19.560;2023-02-15T12:59:53;8.90;56.70
43697;DHT22;29301;47.620;19.560;2023-02-15T13:02:43;8.90;56.70
43697;DHT22;29301;47.620;19.560;2023-02-15T13:05:17;9.00;60.00
43697;DHT22;29301;47.620;19.560;2023-02-15T13:07:53;9.10;56.10
43697;DHT22;29301;47.620;19.560;2023-02-15T13:10:29;9.10;55.30
43697;DHT22;29301;47.620;19.560;2023-02-15T13:12:56;9.00;55.30
43697;DHT22;29301;47.620;19.560;2023-02-15T13:15:44;9.10;55.00
43697;DHT22;29301;47.620;19.560;2023-02-15T13:18:18;9.10;54.60
43697;DHT22;29301;47.620;19.560;2023-02-15T13:20:45;9.10;55.20
43697;DHT22;29301;47.620;19.560;2023-02-15T13:23:39;9.10;55.00
43697;DHT22;29301;47.620;19.560;2023-02-15T13:26:13;9.10;54.60
43697;DHT22;29301;47.620;19.560;2023-02-15T13:28:54;9.20;54.90
43697;DHT22;29301;47.620;19.560;2023-02-15T13:31:23;9.20;54.20
43697;DHT22;29301;47.620;19.560;2023-02-15T13:37:12;9.30;53.70
43697;DHT22;29301;47.620;19.560;2023-02-15T13:39:54;9.30;53.60
43697;DHT22;29301;47.620;19.560;2023-02-15T13:42:31;9.30;53.10
43697;DHT22;29301;47.620;19.560;2023-02-15T13:48:16;9.30;53.20
43697;DHT22;29301;47.620;19.560;2023-02-15T13:51:11;9.30;53.30
43697;DHT22;29301;47.620;19.560;2023-02-15T14:10:01;9.50;53.30
43697;DHT22;29301;47.620;19.560;2023-02-15T14:12:47;9.60;52.80
43697;DHT22;29301;47.620;19.560;2023-02-15T14:18:21;9.60;53.10
43697;DHT22;29301;47.620;19.560;2023-02-15T14:28:52;9.60;52.60
43697;DHT22;29301;47.620;19.560;2023-02-15T14:31:27;9.60;52.30
43697;DHT22;29301;47.620;19.560;2023-02-15T14:33:56;9.60;50.80
43697;DHT22;29301;47.620;19.560;2023-02-15T14:36:23;9.60;50.40
43697;DHT22;29301;47.620;19.560;2023-02-15T14:42:21;9.50;50.50
43697;DHT22;29301;47.620;19.560;2023-02-15T14:44:57;9.50;50.10
43697;DHT22;29301;47.620;19.560;2023-02-15T14:47:36;9.50;49.40
43697;DHT22;29301;47.620;19.560;2023-02-15T14:50:44;9.40;50.50
43697;DHT22;29301;47.620;19.560;2023-02-15T14:55:41;9.20;49.60
43697;DHT22;29301;47.620;19.560;2023-02-15T14:58:11;9.10;50.40
43697;DHT22;29301;47.620;19.560;2023-02-15T15:00:38;9.10;50.60
43697;DHT22;29301;47.620;19.560;2023-02-15T15:03:24;9.00;50.60
43697;DHT22;29301;47.620;19.560;2023-02-15T15:05:55;8.90;51.70
43697;DHT22;29301;47.620;19.560;2023-02-15T15:08:38;8.70;52.10
43697;DHT22;29301;47.620;19.560;2023-02-15T15:11:38;8.60;53.00
43697;DHT22;29301;47.620;19.560;2023-02-15T15:14:05;8.50;53.30
43697;DHT22;29301;47.620;19.560;2023-02-15T15:16:46;8.40;53.00
43697;DHT22;29301;47.620;19.560;2023-02-15T15:22:31;8.20;53.40
43697;DHT22;29301;47.620;19.560;2023-02-15T15:25:09;8.20;53.90
43697;DHT22;29301;47.620;19.560;2023-02-15T15:27:53;8.10;54.40
43697;DHT22;29301;47.620;19.560;2023-02-15T15:49:40;7.20;57.90
43697;DHT22;29301;47.620;19.560;2023-02-15T15:52:24;7.10;58.10
43697;DHT22;29301;47.620;19.560;2023-02-15T15:55:04;7.00;58.50
43697;DHT22;29301;47.620;19.560;2023-02-15T15:57:37;6.80;59.10
43697;DHT22;29301;47.620;19.560;2023-02-15T16:00:05;6.80;59.40
43697;DHT22;29301;47.620;19.560;2023-02-15T16:02:53;6.70;59.50
43697;DHT22;29301;47.620;19.560;2023-02-15T16:05:21;6.70;59.80
43697;DHT22;29301;47.620;19.560;2023-02-15T16:07:46;6.60;60.00
43697;DHT22;29301;47.620;19.560;2023-02-15T16:10:27;6.60;59.90
43697;DHT22;29301;47.620;19.560;2023-02-15T16:12:54;6.60;60.00
43697;DHT22;29301;47.620;19.560;2023-02-15T16:15:23;6.50;60.30
43697;DHT22;29301;47.620;19.560;2023-02-15T16:17:55;6.60;60.00
43697;DHT22;29301;47.620;19.560;2023-02-15T16:25:51;6.50;59.70
43697;DHT22;29301;47.620;19.560;2023-02-15T16:28:20;6.30;60.20
43697;DHT22;29301;47.620;19.560;2023-02-15T16:31:14;6.20;60.70
43697;DHT22;29301;47.620;19.560;2023-02-15T16:33:41;6.10;60.90
43697;DHT22;29301;47.620;19.560;2023-02-15T16:36:44;6.10;61.10
43697;DHT22;29301;47.620;19.560;2023-02-15T16:39:08;6.00;61.00
43697;DHT22;29301;47.620;19.560;2023-02-15T16:41:34;6.00;61.10
43697;DHT22;29301;47.620;19.560;2023-02-15T16:44:12;6.00;61.20
43697;DHT22;29301;47.620;19.560;2023-02-15T16:46:44;5.90;61.40
43697;DHT22;29301;47.620;19.560;2023-02-15T16:49:22;5.80;61.70
43697;DHT22;29301;47.620;19.560;2023-02-15T16:52:04;5.70;62.00
43697;DHT22;29301;47.620;19.560;2023-02-15T16:54:32;5.60;62.60
43697;DHT22;29301;47.620;19.560;2023-02-15T16:56:58;5.50;63.10
43697;DHT22;29301;47.620;19.560;2023-02-15T17:01:51;5.40;63.40
43697;DHT22;29301;47.620;19.560;2023-02-15T17:07:06;5.30;63.50
43697;DHT22;29301;47.620;19.560;2023-02-15T17:09:32;5.30;63.70
43697;DHT22;29301;47.620;19.560;2023-02-15T17:11:59;5.30;63.80
43697;DHT22;29301;47.620;19.560;2023-02-15T17:14:29;5.20;64.00
43697;DHT22;29301;47.620;19.560;2023-02-15T17:17:05;5.20;64.40
43697;DHT22;29301;47.620;19.560;2023-02-15T17:19:49;5.20;64.90
43697;DHT22;29301;47.620;19.560;2023-02-15T17:22:24;5.20;65.50
43697;DHT22;29301;47.620;19.560;2023-02-15T17:24:58;5.20;65.80
43697;DHT22;29301;47.620;19.560;2023-02-15T17:27:27;5.10;66.40
43697;DHT22;29301;47.620;19.560;2023-02-15T17:30:01;5.00;67.10
43697;DHT22;29301;47.620;19.560;2023-02-15T17:32:31;4.90;67.80
43697;DHT22;29301;47.620;19.560;2023-02-15T17:35:45;4.90;68.30
43697;DHT22;29301;47.620;19.560;2023-02-15T17:37:49;4.90;68.50
43697;DHT22;29301;47.620;19.560;2023-02-15T17:42:46;4.90;68.50
43697;DHT22;29301;47.620;19.560;2023-02-15T17:45:15;4.90;68.50
43697;DHT22;29301;47.620;19.560;2023-02-15T17:47:41;4.90;69.00
43697;DHT22;29301;47.620;19.560;2023-02-15T17:50:10;4.80;69.80
43697;DHT22;29301;47.620;19.560;2023-02-15T17:52:40;4.80;70.40
43697;DHT22;29301;47.620;19.560;2023-02-15T17:55:14;4.70;70.80
43697;DHT22;29301;47.620;19.560;2023-02-15T17:57:58;4.70;71.10
43697;DHT22;29301;47.620;19.560;2023-02-15T18:00:24;4.80;71.10
43697;DHT22;29301;47.620;19.560;2023-02-15T18:03:10;4.90;70.30
43697;DHT22;29301;47.620;19.560;2023-02-15T18:05:54;4.80;68.60
43697;DHT22;29301;47.620;19.560;2023-02-15T18:08:39;4.70;67.70
43697;DHT22;29301;47.620;19.560;2023-02-15T18:11:23;4.70;67.50
43697;DHT22;29301;47.620;19.560;2023-02-15T18:14:00;4.70;67.10
43697;DHT22;29301;47.620;19.560;2023-02-15T18:16:32;4.70;66.90
43697;DHT22;29301;47.620;19.560;2023-02-15T18:18:59;4.60;66.70
43697;DHT22;29301;47.620;19.560;2023-02-15T18:21:25;4.60;66.80
43697;DHT22;29301;47.620;19.560;2023-02-15T18:23:51;4.50;66.60
43697;DHT22;29301;47.620;19.560;2023-02-15T18:26:21;4.50;66.70
43697;DHT22;29301;47.620;19.560;2023-02-15T18:28:48;4.60;66.90
43697;DHT22;29301;47.620;19.560;2023-02-15T18:31:15;4.50;66.20
43697;DHT22;29301;47.620;19.560;2023-02-15T18:33:47;4.30;66.40
43697;DHT22;29301;47.620;19.560;2023-02-15T18:36:18;4.00;66.80
43697;DHT22;29301;47.620;19.560;2023-02-15T18:38:45;3.80;68.00
43697;DHT22;29301;47.620;19.560;2023-02-15T18:41:16;3.60;69.80
43697;DHT22;29301;47.620;19.560;2023-02-15T18:43:42;3.60;71.00
43697;DHT22;29301;47.620;19.560;2023-02-15T18:46:08;3.70;71.50
43697;DHT22;29301;47.620;19.560;2023-02-15T18:48:33;3.70;70.70
43697;DHT22;29301;47.620;19.560;2023-02-15T18:50:59;3.80;70.50
43697;DHT22;29301;47.620;19.560;2023-02-15T18:53:25;3.80;70.10
43697;DHT22;29301;47.620;19.560;2023-02-15T18:55:51;3.80;70.20
43697;DHT22;29301;47.620;19.560;2023-02-15T18:58:19;3.80;69.60
43697;DHT22;29301;47.620;19.560;2023-02-15T19:00:45;3.60;68.40
43697;DHT22;29301;47.620;19.560;2023-02-15T19:03:13;3.60;68.40
43697;DHT22;29301;47.620;19.560;2023-02-15T19:05:44;3.50;68.10
43697;DHT22;29301;47.620;19.560;2023-02-15T19:08:18;3.40;68.30
43697;DHT22;29301;47.620;19.560;2023-02-15T19:10:46;3.40;68.60